sensor_id;sensor_type;location;lat;lon;timestamp;temperature;humidity
19180;DHT22;9722;48.754;8.868;2022-10-16T00:01:56;15.50;99.90
19180;DHT22;9722;48.754;8.868;2022-10-16T00:05:17;15.50;99.90
19180;DHT22;9722;48.754;8.868;2022-10-16T00:08:38;15.50;99.90
19180;DHT22;9722;48.754;8.868;2022-10-16T00:11:59;15.50;99.90
19180;DHT22;9722;48.754;8.868;2022-10-16T00:15:19;15.40;99.90
19180;DHT22;9722;48.754;8.868;2022-10-16T00:18:40;15.40;99.90
19180;DHT22;9722;48.754;8.868;2022-10-16T00:22:01;15.30;99.90
19180;DHT22;9722;48.754;8.868;2022-10-16T00:25:21;15.30;99.90
19180;DHT22;9722;48.754;8.868;2022-10-16T00:28:42;15.20;99.90
19180;DHT22;9722;48.754;8.868;2022-10-16T00:32:03;15.10;99.90
19180;DHT22;9722;48.754;8.868;2022-10-16T00:35:23;15.10;99.90
19180;DHT22;9722;48.754;8.868;2022-10-16T00:38:44;15.10;99.90
19180;DHT22;9722;48.754;8.868;2022-10-16T00:42:05;15.10;99.90
19180;DHT22;9722;48.754;8.868;2022-10-16T00:45:25;15.20;99.90
19180;DHT22;9722;48.754;8.868;2022-10-16T00:49:03;15.20;99.90
19180;DHT22;9722;48.754;8.868;2022-10-16T00:52:25;15.10;99.90
19180;DHT22;9722;48.754;8.868;2022-10-16T00:55:45;15.10;99.90
19180;DHT22;9722;48.754;8.868;2022-10-16T00:59:12;15.10;99.90
19180;DHT22;9722;48.754;8.868;2022-10-16T01:02:35;15.20;99.90
19180;DHT22;9722;48.754;8.868;2022-10-16T01:10:34;15.30;99.90
19180;DHT22;9722;48.754;8.868;2022-10-16T01:13:58;15.40;99.90
19180;DHT22;9722;48.754;8.868;2022-10-16T01:17:30;15.40;99.90
19180;DHT22;9722;48.754;8.868;2022-10-16T01:21:06;15.40;99.90
19180;DHT22;9722;48.754;8.868;2022-10-16T01:27:56;15.30;99.90
19180;DHT22;9722;48.754;8.868;2022-10-16T01:31:20;15.40;99.90
19180;DHT22;9722;48.754;8.868;2022-10-16T01:34:52;15.40;99.90
19180;DHT22;9722;48.754;8.868;2022-10-16T01:38:34;15.40;99.90
19180;DHT22;9722;48.754;8.868;2022-10-16T01:42:05;15.40;99.90
19180;DHT22;9722;48.754;8.868;2022-10-16T01:45:28;15.40;99.90
19180;DHT22;9722;48.754;8.868;2022-10-16T01:48:51;15.40;99.90
19180;DHT22;9722;48.754;8.868;2022-10-16T01:52:19;15.40;99.90
19180;DHT22;9722;48.754;8.868;2022-10-16T01:55:44;15.40;99.90
19180;DHT22;9722;48.754;8.868;2022-10-16T01:59:15;15.30;99.90
19180;DHT22;9722;48.754;8.868;2022-10-16T02:02:40;15.40;99.90
19180;DHT22;9722;48.754;8.868;2022-10-16T02:06:02;15.30;99.90
19180;DHT22;9722;48.754;8.868;2022-10-16T02:09:22;15.30;99.90
19180;DHT22;9722;48.754;8.868;2022-10-16T02:12:55;15.30;99.90
19180;DHT22;9722;48.754;8.868;2022-10-16T02:16:16;15.40;99.90
19180;DHT22;9722;48.754;8.868;2022-10-16T02:19:37;15.40;99.90
19180;DHT22;9722;48.754;8.868;2022-10-16T02:22:58;15.40;99.90
19180;DHT22;9722;48.754;8.868;2022-10-16T02:26:35;15.40;99.90
19180;DHT22;9722;48.754;8.868;2022-10-16T02:30:49;15.30;99.90
19180;DHT22;9722;48.754;8.868;2022-10-16T02:33:43;15.30;99.90
19180;DHT22;9722;48.754;8.868;2022-10-16T02:37:04;15.20;99.90
19180;DHT22;9722;48.754;8.868;2022-10-16T02:40:26;15.20;99.90
19180;DHT22;9722;48.754;8.868;2022-10-16T02:43:46;15.20;99.90
19180;DHT22;9722;48.754;8.868;2022-10-16T02:47:07;15.30;99.90
19180;DHT22;9722;48.754;8.868;2022-10-16T02:50:27;15.30;99.90
19180;DHT22;9722;48.754;8.868;2022-10-16T02:53:48;15.30;99.90
19180;DHT22;9722;48.754;8.868;2022-10-16T02:57:09;15.20;99.90
19180;DHT22;9722;48.754;8.868;2022-10-16T03:00:29;15.30;99.90
19180;DHT22;9722;48.754;8.868;2022-10-16T03:03:50;15.30;99.90
19180;DHT22;9722;48.754;8.868;2022-10-16T03:07:10;15.30;99.90
19180;DHT22;9722;48.754;8.868;2022-10-16T03:10:31;15.20;99.90
19180;DHT22;9722;48.754;8.868;2022-10-16T03:13:52;15.20;99.90
19180;DHT22;9722;48.754;8.868;2022-10-16T03:17:12;15.20;99.90
19180;DHT22;9722;48.754;8.868;2022-10-16T03:20:33;15.20;99.90
19180;DHT22;9722;48.754;8.868;2022-10-16T03:23:54;15.20;99.90
19180;DHT22;9722;48.754;8.868;2022-10-16T03:27:14;15.20;99.90
19180;DHT22;9722;48.754;8.868;2022-10-16T03:30:35;15.20;99.90
19180;DHT22;9722;48.754;8.868;2022-10-16T03:33:56;15.10;99.90
19180;DHT22;9722;48.754;8.868;2022-10-16T03:37:17;15.10;99.90
19180;DHT22;9722;48.754;8.868;2022-10-16T03:40:37;15.10;99.90
19180;DHT22;9722;48.754;8.868;2022-10-16T03:43:58;15.00;99.90
19180;DHT22;9722;48.754;8.868;2022-10-16T03:47:18;15.00;99.90
19180;DHT22;9722;48.754;8.868;2022-10-16T03:50:41;14.90;99.90
19180;DHT22;9722;48.754;8.868;2022-10-16T03:54:02;14.90;99.90
19180;DHT22;9722;48.754;8.868;2022-10-16T03:57:23;14.80;99.90
19180;DHT22;9722;48.754;8.868;2022-10-16T04:00:44;14.80;99.90
19180;DHT22;9722;48.754;8.868;2022-10-16T04:04:05;14.80;99.90
19180;DHT22;9722;48.754;8.868;2022-10-16T04:07:26;14.80;99.90
19180;DHT22;9722;48.754;8.868;2022-10-16T04:10:46;14.80;99.90
19180;DHT22;9722;48.754;8.868;2022-10-16T04:14:07;14.80;99.90
19180;DHT22;9722;48.754;8.868;2022-10-16T04:17:27;14.80;99.90
19180;DHT22;9722;48.754;8.868;2022-10-16T04:20:48;14.70;99.90
19180;DHT22;9722;48.754;8.868;2022-10-16T04:24:08;14.70;99.90
19180;DHT22;9722;48.754;8.868;2022-10-16T04:27:31;14.70;99.90
19180;DHT22;9722;48.754;8.868;2022-10-16T04:30:51;14.80;99.90
19180;DHT22;9722;48.754;8.868;2022-10-16T04:34:12;14.80;99.90
19180;DHT22;9722;48.754;8.868;2022-10-16T04:37:32;14.80;99.90
19180;DHT22;9722;48.754;8.868;2022-10-16T04:40:53;14.80;99.90
19180;DHT22;9722;48.754;8.868;2022-10-16T04:44:13;14.80;99.90
19180;DHT22;9722;48.754;8.868;2022-10-16T04:47:34;14.80;99.90
19180;DHT22;9722;48.754;8.868;2022-10-16T04:50:55;14.90;99.90
19180;DHT22;9722;48.754;8.868;2022-10-16T04:54:15;14.90;99.90
19180;DHT22;9722;48.754;8.868;2022-10-16T04:57:36;14.90;99.90
19180;DHT22;9722;48.754;8.868;2022-10-16T05:00:56;14.90;99.90
19180;DHT22;9722;48.754;8.868;2022-10-16T05:04:17;14.90;99.90
19180;DHT22;9722;48.754;8.868;2022-10-16T05:07:37;14.80;99.90
19180;DHT22;9722;48.754;8.868;2022-10-16T05:10:58;14.80;99.90
19180;DHT22;9722;48.754;8.868;2022-10-16T05:14:18;14.80;99.90
19180;DHT22;9722;48.754;8.868;2022-10-16T05:17:39;14.70;99.90
19180;DHT22;9722;48.754;8.868;2022-10-16T05:20:59;14.70;99.90
19180;DHT22;9722;48.754;8.868;2022-10-16T05:24:20;14.70;99.90
19180;DHT22;9722;48.754;8.868;2022-10-16T05:27:41;14.70;99.90
19180;DHT22;9722;48.754;8.868;2022-10-16T05:31:08;14.60;99.90
19180;DHT22;9722;48.754;8.868;2022-10-16T05:34:29;14.60;99.90
19180;DHT22;9722;48.754;8.868;2022-10-16T05:37:50;14.60;99.90
19180;DHT22;9722;48.754;8.868;2022-10-16T05:41:10;14.50;99.90
19180;DHT22;9722;48.754;8.868;2022-10-16T05:44:31;14.50;99.90
19180;DHT22;9722;48.754;8.868;2022-10-16T05:47:52;14.50;99.90
19180;DHT22;9722;48.754;8.868;2022-10-16T05:51:13;14.50;99.90
19180;DHT22;9722;48.754;8.868;2022-10-16T05:54:34;14.40;99.90
19180;DHT22;9722;48.754;8.868;2022-10-16T05:57:55;14.40;99.90
19180;DHT22;9722;48.754;8.868;2022-10-16T06:01:17;14.30;99.90
19180;DHT22;9722;48.754;8.868;2022-10-16T06:04:38;14.40;99.90
19180;DHT22;9722;48.754;8.868;2022-10-16T06:07:58;14.30;99.90
19180;DHT22;9722;48.754;8.868;2022-10-16T06:11:21;14.30;99.90
19180;DHT22;9722;48.754;8.868;2022-10-16T06:14:42;14.30;99.90
19180;DHT22;9722;48.754;8.868;2022-10-16T06:18:02;14.30;99.90
19180;DHT22;9722;48.754;8.868;2022-10-16T06:21:24;14.30;99.90
19180;DHT22;9722;48.754;8.868;2022-10-16T06:24:45;14.30;99.90
19180;DHT22;9722;48.754;8.868;2022-10-16T06:28:06;14.40;99.90
19180;DHT22;9722;48.754;8.868;2022-10-16T06:31:28;14.40;99.90
19180;DHT22;9722;48.754;8.868;2022-10-16T06:34:51;14.40;99.90
19180;DHT22;9722;48.754;8.868;2022-10-16T06:38:11;14.50;99.90
19180;DHT22;9722;48.754;8.868;2022-10-16T06:41:32;14.50;99.90
19180;DHT22;9722;48.754;8.868;2022-10-16T06:44:53;14.60;99.90
19180;DHT22;9722;48.754;8.868;2022-10-16T06:48:13;14.70;99.90
19180;DHT22;9722;48.754;8.868;2022-10-16T06:51:34;14.70;99.90
19180;DHT22;9722;48.754;8.868;2022-10-16T06:54:56;14.90;99.90
19180;DHT22;9722;48.754;8.868;2022-10-16T06:58:18;14.90;99.90
19180;DHT22;9722;48.754;8.868;2022-10-16T07:01:38;15.10;99.90
19180;DHT22;9722;48.754;8.868;2022-10-16T07:04:59;15.20;99.90
19180;DHT22;9722;48.754;8.868;2022-10-16T07:08:19;15.30;99.90
19180;DHT22;9722;48.754;8.868;2022-10-16T07:11:40;15.40;99.90
19180;DHT22;9722;48.754;8.868;2022-10-16T07:15:01;15.50;99.90
19180;DHT22;9722;48.754;8.868;2022-10-16T07:18:21;15.50;99.90
19180;DHT22;9722;48.754;8.868;2022-10-16T07:21:46;15.50;99.90
19180;DHT22;9722;48.754;8.868;2022-10-16T07:25:07;15.50;99.90
19180;DHT22;9722;48.754;8.868;2022-10-16T07:28:28;15.50;99.90
19180;DHT22;9722;48.754;8.868;2022-10-16T07:31:49;15.60;99.90
19180;DHT22;9722;48.754;8.868;2022-10-16T07:35:09;15.70;99.90
19180;DHT22;9722;48.754;8.868;2022-10-16T07:38:30;15.80;99.90
19180;DHT22;9722;48.754;8.868;2022-10-16T07:41:51;16.00;99.90
19180;DHT22;9722;48.754;8.868;2022-10-16T07:45:11;16.10;99.90
19180;DHT22;9722;48.754;8.868;2022-10-16T07:48:33;16.10;99.90
19180;DHT22;9722;48.754;8.868;2022-10-16T07:51:54;16.30;99.90
19180;DHT22;9722;48.754;8.868;2022-10-16T07:55:14;16.40;99.90
19180;DHT22;9722;48.754;8.868;2022-10-16T07:58:35;16.60;99.90
19180;DHT22;9722;48.754;8.868;2022-10-16T08:01:57;16.90;99.90
19180;DHT22;9722;48.754;8.868;2022-10-16T08:05:17;17.30;99.90
19180;DHT22;9722;48.754;8.868;2022-10-16T08:08:38;17.70;99.90
19180;DHT22;9722;48.754;8.868;2022-10-16T08:11:59;18.10;99.60
19180;DHT22;9722;48.754;8.868;2022-10-16T08:15:20;18.40;98.50
19180;DHT22;9722;48.754;8.868;2022-10-16T08:18:41;18.50;97.60
19180;DHT22;9722;48.754;8.868;2022-10-16T08:22:01;18.60;97.50
19180;DHT22;9722;48.754;8.868;2022-10-16T08:25:23;18.80;97.20
19180;DHT22;9722;48.754;8.868;2022-10-16T08:28:44;18.90;96.70
19180;DHT22;9722;48.754;8.868;2022-10-16T08:32:05;19.00;96.30
19180;DHT22;9722;48.754;8.868;2022-10-16T08:35:26;19.10;96.40
19180;DHT22;9722;48.754;8.868;2022-10-16T08:38:50;19.10;96.10
19180;DHT22;9722;48.754;8.868;2022-10-16T08:42:12;19.20;95.60
19180;DHT22;9722;48.754;8.868;2022-10-16T08:45:49;19.20;95.20
19180;DHT22;9722;48.754;8.868;2022-10-16T08:49:14;19.20;95.00
19180;DHT22;9722;48.754;8.868;2022-10-16T08:52:39;19.20;95.00
19180;DHT22;9722;48.754;8.868;2022-10-16T08:56:00;19.20;94.80
19180;DHT22;9722;48.754;8.868;2022-10-16T08:59:21;19.30;94.60
19180;DHT22;9722;48.754;8.868;2022-10-16T09:02:56;19.40;94.50
19180;DHT22;9722;48.754;8.868;2022-10-16T09:10:15;21.40;91.60
19180;DHT22;9722;48.754;8.868;2022-10-16T09:13:52;21.80;89.60
19180;DHT22;9722;48.754;8.868;2022-10-16T09:21:13;22.20;84.70
19180;DHT22;9722;48.754;8.868;2022-10-16T09:24:35;22.80;82.00
19180;DHT22;9722;48.754;8.868;2022-10-16T09:27:56;23.00;79.30
19180;DHT22;9722;48.754;8.868;2022-10-16T09:31:21;22.90;77.10
19180;DHT22;9722;48.754;8.868;2022-10-16T09:34:47;22.70;76.30
19180;DHT22;9722;48.754;8.868;2022-10-16T09:38:08;22.50;75.90
19180;DHT22;9722;48.754;8.868;2022-10-16T09:41:43;22.60;75.60
19180;DHT22;9722;48.754;8.868;2022-10-16T09:45:04;22.90;74.00
19180;DHT22;9722;48.754;8.868;2022-10-16T09:48:29;23.90;70.30
19180;DHT22;9722;48.754;8.868;2022-10-16T09:52:04;24.60;66.60
19180;DHT22;9722;48.754;8.868;2022-10-16T09:55:25;25.00;64.50
19180;DHT22;9722;48.754;8.868;2022-10-16T09:58:53;24.90;63.40
19180;DHT22;9722;48.754;8.868;2022-10-16T10:02:33;24.90;63.30
19180;DHT22;9722;48.754;8.868;2022-10-16T10:05:54;25.00;64.40
19180;DHT22;9722;48.754;8.868;2022-10-16T10:09:27;25.30;62.60
19180;DHT22;9722;48.754;8.868;2022-10-16T10:12:49;25.40;61.10
19180;DHT22;9722;48.754;8.868;2022-10-16T10:16:10;25.20;60.80
19180;DHT22;9722;48.754;8.868;2022-10-16T10:19:53;24.90;61.40
19180;DHT22;9722;48.754;8.868;2022-10-16T10:23:23;24.70;62.00
19180;DHT22;9722;48.754;8.868;2022-10-16T10:27:06;24.50;62.50
19180;DHT22;9722;48.754;8.868;2022-10-16T10:34:25;24.80;63.00
19180;DHT22;9722;48.754;8.868;2022-10-16T10:37:57;25.90;62.70
19180;DHT22;9722;48.754;8.868;2022-10-16T10:45:16;29.30;56.80
19180;DHT22;9722;48.754;8.868;2022-10-16T10:52:42;31.00;51.30
19180;DHT22;9722;48.754;8.868;2022-10-16T11:04:03;30.50;50.30
19180;DHT22;9722;48.754;8.868;2022-10-16T11:07:32;30.10;50.10
19180;DHT22;9722;48.754;8.868;2022-10-16T11:11:02;29.60;50.70
19180;DHT22;9722;48.754;8.868;2022-10-16T11:14:30;29.30;51.70
19180;DHT22;9722;48.754;8.868;2022-10-16T11:18:07;29.00;52.60
19180;DHT22;9722;48.754;8.868;2022-10-16T11:21:31;28.90;52.60
19180;DHT22;9722;48.754;8.868;2022-10-16T11:25:13;28.70;52.40
19180;DHT22;9722;48.754;8.868;2022-10-16T11:28:44;28.60;52.50
19180;DHT22;9722;48.754;8.868;2022-10-16T11:32:21;28.60;53.00
19180;DHT22;9722;48.754;8.868;2022-10-16T11:35:51;29.10;52.00
19180;DHT22;9722;48.754;8.868;2022-10-16T11:39:29;29.40;51.20
19180;DHT22;9722;48.754;8.868;2022-10-16T11:43:17;29.50;51.00
19180;DHT22;9722;48.754;8.868;2022-10-16T11:46:41;29.50;50.80
19180;DHT22;9722;48.754;8.868;2022-10-16T11:53:53;29.40;51.10
19180;DHT22;9722;48.754;8.868;2022-10-16T11:57:23;29.50;51.60
19180;DHT22;9722;48.754;8.868;2022-10-16T12:04:22;29.00;51.00
19180;DHT22;9722;48.754;8.868;2022-10-16T12:08:13;28.50;51.70
19180;DHT22;9722;48.754;8.868;2022-10-16T12:11:35;28.10;52.50
19180;DHT22;9722;48.754;8.868;2022-10-16T12:15:17;28.00;53.00
19180;DHT22;9722;48.754;8.868;2022-10-16T12:18:40;27.90;53.30
19180;DHT22;9722;48.754;8.868;2022-10-16T12:22:02;28.10;53.40
19180;DHT22;9722;48.754;8.868;2022-10-16T12:28:49;29.10;51.80
19180;DHT22;9722;48.754;8.868;2022-10-16T12:35:50;31.30;48.00
19180;DHT22;9722;48.754;8.868;2022-10-16T12:39:21;30.90;48.00
19180;DHT22;9722;48.754;8.868;2022-10-16T12:42:42;30.20;49.20
19180;DHT22;9722;48.754;8.868;2022-10-16T12:49:35;29.10;50.70
19180;DHT22;9722;48.754;8.868;2022-10-16T12:52:57;28.80;50.40
19180;DHT22;9722;48.754;8.868;2022-10-16T12:56:25;29.20;50.00
19180;DHT22;9722;48.754;8.868;2022-10-16T13:04:02;30.30;48.00
19180;DHT22;9722;48.754;8.868;2022-10-16T13:07:41;30.20;48.10
19180;DHT22;9722;48.754;8.868;2022-10-16T13:11:41;29.80;48.40
19180;DHT22;9722;48.754;8.868;2022-10-16T13:15:34;29.50;49.00
19180;DHT22;9722;48.754;8.868;2022-10-16T13:19:23;29.30;49.50
19180;DHT22;9722;48.754;8.868;2022-10-16T13:29:52;28.40;51.20
19180;DHT22;9722;48.754;8.868;2022-10-16T13:36:50;29.70;49.60
19180;DHT22;9722;48.754;8.868;2022-10-16T13:40:23;30.70;48.70
19180;DHT22;9722;48.754;8.868;2022-10-16T13:43:50;30.90;47.40
19180;DHT22;9722;48.754;8.868;2022-10-16T13:47:29;30.70;47.90
19180;DHT22;9722;48.754;8.868;2022-10-16T13:50:59;30.50;48.00
19180;DHT22;9722;48.754;8.868;2022-10-16T13:54:20;30.10;49.00
19180;DHT22;9722;48.754;8.868;2022-10-16T13:57:41;29.50;50.10
19180;DHT22;9722;48.754;8.868;2022-10-16T14:01:15;28.90;51.60
19180;DHT22;9722;48.754;8.868;2022-10-16T14:04:38;29.40;51.80
19180;DHT22;9722;48.754;8.868;2022-10-16T14:07:59;30.10;51.20
19180;DHT22;9722;48.754;8.868;2022-10-16T14:11:22;30.20;50.90
19180;DHT22;9722;48.754;8.868;2022-10-16T14:14:51;30.10;51.10
19180;DHT22;9722;48.754;8.868;2022-10-16T14:18:21;29.90;51.30
19180;DHT22;9722;48.754;8.868;2022-10-16T14:21:43;29.80;51.50
19180;DHT22;9722;48.754;8.868;2022-10-16T14:28:47;30.00;51.10
19180;DHT22;9722;48.754;8.868;2022-10-16T14:32:22;29.80;51.10
19180;DHT22;9722;48.754;8.868;2022-10-16T14:35:44;29.80;51.80
19180;DHT22;9722;48.754;8.868;2022-10-16T14:39:13;29.90;51.70
19180;DHT22;9722;48.754;8.868;2022-10-16T14:42:37;29.70;51.50
19180;DHT22;9722;48.754;8.868;2022-10-16T14:45:58;29.20;52.50
19180;DHT22;9722;48.754;8.868;2022-10-16T14:49:19;28.60;54.20
19180;DHT22;9722;48.754;8.868;2022-10-16T14:52:41;28.10;54.80
19180;DHT22;9722;48.754;8.868;2022-10-16T14:56:08;27.80;55.20
19180;DHT22;9722;48.754;8.868;2022-10-16T14:59:35;27.50;55.60
19180;DHT22;9722;48.754;8.868;2022-10-16T15:02:56;27.70;55.40
19180;DHT22;9722;48.754;8.868;2022-10-16T15:06:17;27.70;55.30
19180;DHT22;9722;48.754;8.868;2022-10-16T15:09:38;27.40;55.20
19180;DHT22;9722;48.754;8.868;2022-10-16T15:12:58;26.90;55.80
19180;DHT22;9722;48.754;8.868;2022-10-16T15:16:19;26.40;56.60
19180;DHT22;9722;48.754;8.868;2022-10-16T15:19:39;25.90;57.30
19180;DHT22;9722;48.754;8.868;2022-10-16T15:23:05;25.50;58.10
19180;DHT22;9722;48.754;8.868;2022-10-16T15:26:28;25.20;59.10
19180;DHT22;9722;48.754;8.868;2022-10-16T15:29:49;24.80;60.20
19180;DHT22;9722;48.754;8.868;2022-10-16T15:33:13;24.60;61.70
19180;DHT22;9722;48.754;8.868;2022-10-16T15:36:36;24.30;62.90
19180;DHT22;9722;48.754;8.868;2022-10-16T15:39:57;24.10;64.00
19180;DHT22;9722;48.754;8.868;2022-10-16T15:43:17;23.80;63.40
19180;DHT22;9722;48.754;8.868;2022-10-16T15:46:39;23.60;65.00
19180;DHT22;9722;48.754;8.868;2022-10-16T15:49:59;23.40;66.30
19180;DHT22;9722;48.754;8.868;2022-10-16T15:53:20;23.10;66.30
19180;DHT22;9722;48.754;8.868;2022-10-16T15:56:40;22.90;66.00
19180;DHT22;9722;48.754;8.868;2022-10-16T16:00:01;22.70;66.40
19180;DHT22;9722;48.754;8.868;2022-10-16T16:03:21;22.50;67.00
19180;DHT22;9722;48.754;8.868;2022-10-16T16:06:42;22.30;67.60
19180;DHT22;9722;48.754;8.868;2022-10-16T16:10:06;22.00;68.30
19180;DHT22;9722;48.754;8.868;2022-10-16T16:13:27;21.80;70.00
19180;DHT22;9722;48.754;8.868;2022-10-16T16:16:48;21.60;72.30
19180;DHT22;9722;48.754;8.868;2022-10-16T16:20:09;21.30;74.10
19180;DHT22;9722;48.754;8.868;2022-10-16T16:23:30;21.00;75.80
19180;DHT22;9722;48.754;8.868;2022-10-16T16:26:51;20.70;77.60
19180;DHT22;9722;48.754;8.868;2022-10-16T16:30:11;20.40;78.60
19180;DHT22;9722;48.754;8.868;2022-10-16T16:33:33;20.20;79.50
19180;DHT22;9722;48.754;8.868;2022-10-16T16:36:54;19.90;80.50
19180;DHT22;9722;48.754;8.868;2022-10-16T16:40:15;19.70;81.50
19180;DHT22;9722;48.754;8.868;2022-10-16T16:43:35;19.60;82.00
19180;DHT22;9722;48.754;8.868;2022-10-16T16:46:56;19.40;82.60
19180;DHT22;9722;48.754;8.868;2022-10-16T16:50:16;19.30;83.80
19180;DHT22;9722;48.754;8.868;2022-10-16T16:53:37;19.20;85.40
19180;DHT22;9722;48.754;8.868;2022-10-16T16:56:57;18.90;86.60
19180;DHT22;9722;48.754;8.868;2022-10-16T17:00:18;18.70;88.00
19180;DHT22;9722;48.754;8.868;2022-10-16T17:03:42;18.50;89.40
19180;DHT22;9722;48.754;8.868;2022-10-16T17:07:04;18.30;90.20
19180;DHT22;9722;48.754;8.868;2022-10-16T17:10:24;18.20;90.80
19180;DHT22;9722;48.754;8.868;2022-10-16T17:13:46;18.10;91.30
19180;DHT22;9722;48.754;8.868;2022-10-16T17:17:06;17.90;91.80
19180;DHT22;9722;48.754;8.868;2022-10-16T17:20:27;17.70;92.40
19180;DHT22;9722;48.754;8.868;2022-10-16T17:23:50;17.50;93.00
19180;DHT22;9722;48.754;8.868;2022-10-16T17:27:11;17.30;93.70
19180;DHT22;9722;48.754;8.868;2022-10-16T17:30:32;17.10;94.20
19180;DHT22;9722;48.754;8.868;2022-10-16T17:33:55;16.90;95.00
19180;DHT22;9722;48.754;8.868;2022-10-16T17:37:17;16.70;95.60
19180;DHT22;9722;48.754;8.868;2022-10-16T17:40:37;16.50;96.20
19180;DHT22;9722;48.754;8.868;2022-10-16T17:43:58;16.40;96.80
19180;DHT22;9722;48.754;8.868;2022-10-16T17:47:19;16.20;97.30
19180;DHT22;9722;48.754;8.868;2022-10-16T17:50:40;16.10;98.00
19180;DHT22;9722;48.754;8.868;2022-10-16T17:54:01;15.90;98.60
19180;DHT22;9722;48.754;8.868;2022-10-16T17:57:22;15.80;99.20
19180;DHT22;9722;48.754;8.868;2022-10-16T18:00:42;15.60;99.60
19180;DHT22;9722;48.754;8.868;2022-10-16T18:04:08;15.50;99.90
19180;DHT22;9722;48.754;8.868;2022-10-16T18:07:29;15.40;99.90
19180;DHT22;9722;48.754;8.868;2022-10-16T18:10:50;15.30;99.90
19180;DHT22;9722;48.754;8.868;2022-10-16T18:14:12;15.30;99.90
19180;DHT22;9722;48.754;8.868;2022-10-16T18:17:36;15.30;99.90
19180;DHT22;9722;48.754;8.868;2022-10-16T18:20:59;15.20;99.90
19180;DHT22;9722;48.754;8.868;2022-10-16T18:24:21;15.20;99.90
19180;DHT22;9722;48.754;8.868;2022-10-16T18:27:44;15.20;99.90
19180;DHT22;9722;48.754;8.868;2022-10-16T18:31:15;15.20;99.90
19180;DHT22;9722;48.754;8.868;2022-10-16T18:34:36;15.20;99.90
19180;DHT22;9722;48.754;8.868;2022-10-16T18:37:56;15.20;99.90
19180;DHT22;9722;48.754;8.868;2022-10-16T18:41:19;15.20;99.90
19180;DHT22;9722;48.754;8.868;2022-10-16T18:44:40;15.10;99.90
19180;DHT22;9722;48.754;8.868;2022-10-16T18:48:01;15.10;99.90
19180;DHT22;9722;48.754;8.868;2022-10-16T18:51:27;15.00;99.90
19180;DHT22;9722;48.754;8.868;2022-10-16T18:54:48;15.00;99.90
19180;DHT22;9722;48.754;8.868;2022-10-16T18:58:09;14.90;99.90
19180;DHT22;9722;48.754;8.868;2022-10-16T19:01:32;14.80;99.90
19180;DHT22;9722;48.754;8.868;2022-10-16T19:04:53;14.80;99.90
19180;DHT22;9722;48.754;8.868;2022-10-16T19:08:14;14.80;99.90
19180;DHT22;9722;48.754;8.868;2022-10-16T19:11:35;14.80;99.90
19180;DHT22;9722;48.754;8.868;2022-10-16T19:14:56;14.80;99.90
19180;DHT22;9722;48.754;8.868;2022-10-16T19:18:16;14.70;99.90
19180;DHT22;9722;48.754;8.868;2022-10-16T19:21:38;14.70;99.90
19180;DHT22;9722;48.754;8.868;2022-10-16T19:25:01;14.70;99.90
19180;DHT22;9722;48.754;8.868;2022-10-16T19:28:22;14.70;99.90
19180;DHT22;9722;48.754;8.868;2022-10-16T19:31:42;14.70;99.90
19180;DHT22;9722;48.754;8.868;2022-10-16T19:35:03;14.70;99.90
19180;DHT22;9722;48.754;8.868;2022-10-16T19:38:24;14.70;99.90
19180;DHT22;9722;48.754;8.868;2022-10-16T19:41:44;14.60;99.90
19180;DHT22;9722;48.754;8.868;2022-10-16T19:45:07;14.60;99.90
19180;DHT22;9722;48.754;8.868;2022-10-16T19:48:27;14.60;99.90
19180;DHT22;9722;48.754;8.868;2022-10-16T19:51:49;14.50;99.90
19180;DHT22;9722;48.754;8.868;2022-10-16T19:55:11;14.50;99.90
19180;DHT22;9722;48.754;8.868;2022-10-16T19:58:31;14.50;99.90
19180;DHT22;9722;48.754;8.868;2022-10-16T20:01:52;14.50;99.90
19180;DHT22;9722;48.754;8.868;2022-10-16T20:05:12;14.50;99.90
19180;DHT22;9722;48.754;8.868;2022-10-16T20:08:34;14.40;99.90
19180;DHT22;9722;48.754;8.868;2022-10-16T20:11:55;14.40;99.90
19180;DHT22;9722;48.754;8.868;2022-10-16T20:15:16;14.40;99.90
19180;DHT22;9722;48.754;8.868;2022-10-16T20:18:37;14.30;99.90
19180;DHT22;9722;48.754;8.868;2022-10-16T20:21:58;14.30;99.90
19180;DHT22;9722;48.754;8.868;2022-10-16T20:25:18;14.30;99.90
19180;DHT22;9722;48.754;8.868;2022-10-16T20:28:40;14.20;99.90
19180;DHT22;9722;48.754;8.868;2022-10-16T20:32:00;14.20;99.90
19180;DHT22;9722;48.754;8.868;2022-10-16T20:35:21;14.10;99.90
19180;DHT22;9722;48.754;8.868;2022-10-16T20:38:42;14.10;99.90
19180;DHT22;9722;48.754;8.868;2022-10-16T20:42:03;14.10;99.90
19180;DHT22;9722;48.754;8.868;2022-10-16T20:45:23;14.00;99.90
19180;DHT22;9722;48.754;8.868;2022-10-16T20:48:45;14.00;99.90
19180;DHT22;9722;48.754;8.868;2022-10-16T20:52:06;14.00;99.90
19180;DHT22;9722;48.754;8.868;2022-10-16T20:55:26;13.90;99.90
19180;DHT22;9722;48.754;8.868;2022-10-16T20:58:47;13.90;99.90
19180;DHT22;9722;48.754;8.868;2022-10-16T21:02:09;14.00;99.90
19180;DHT22;9722;48.754;8.868;2022-10-16T21:05:30;14.00;99.90
19180;DHT22;9722;48.754;8.868;2022-10-16T21:08:52;14.00;99.90
19180;DHT22;9722;48.754;8.868;2022-10-16T21:12:13;14.00;99.90
19180;DHT22;9722;48.754;8.868;2022-10-16T21:15:35;14.00;99.90
19180;DHT22;9722;48.754;8.868;2022-10-16T21:18:56;14.00;99.90
19180;DHT22;9722;48.754;8.868;2022-10-16T21:22:17;14.00;99.90
19180;DHT22;9722;48.754;8.868;2022-10-16T21:25:38;14.00;99.90
19180;DHT22;9722;48.754;8.868;2022-10-16T21:29:02;13.90;99.90
19180;DHT22;9722;48.754;8.868;2022-10-16T21:32:22;13.80;99.90
19180;DHT22;9722;48.754;8.868;2022-10-16T21:35:43;13.80;99.90
19180;DHT22;9722;48.754;8.868;2022-10-16T21:39:05;13.80;99.90
19180;DHT22;9722;48.754;8.868;2022-10-16T21:42:26;13.70;99.90
19180;DHT22;9722;48.754;8.868;2022-10-16T21:45:47;13.60;99.90
19180;DHT22;9722;48.754;8.868;2022-10-16T21:49:16;13.60;99.90
19180;DHT22;9722;48.754;8.868;2022-10-16T21:52:36;13.60;99.90
19180;DHT22;9722;48.754;8.868;2022-10-16T21:55:57;13.60;99.90
19180;DHT22;9722;48.754;8.868;2022-10-16T21:59:17;13.60;99.90
19180;DHT22;9722;48.754;8.868;2022-10-16T22:02:38;13.60;99.90
19180;DHT22;9722;48.754;8.868;2022-10-16T22:06:07;13.60;99.90
19180;DHT22;9722;48.754;8.868;2022-10-16T22:09:27;13.60;99.90
19180;DHT22;9722;48.754;8.868;2022-10-16T22:12:48;13.60;99.90
19180;DHT22;9722;48.754;8.868;2022-10-16T22:16:09;13.60;99.90
19180;DHT22;9722;48.754;8.868;2022-10-16T22:19:30;13.50;99.90
19180;DHT22;9722;48.754;8.868;2022-10-16T22:22:50;13.50;99.90
19180;DHT22;9722;48.754;8.868;2022-10-16T22:26:11;13.40;99.90
19180;DHT22;9722;48.754;8.868;2022-10-16T22:29:32;13.50;99.90
19180;DHT22;9722;48.754;8.868;2022-10-16T22:32:52;13.60;99.90
19180;DHT22;9722;48.754;8.868;2022-10-16T22:36:13;13.60;99.90
19180;DHT22;9722;48.754;8.868;2022-10-16T22:39:34;13.60;99.90
19180;DHT22;9722;48.754;8.868;2022-10-16T22:42:55;13.60;99.90
19180;DHT22;9722;48.754;8.868;2022-10-16T22:46:27;13.60;99.90
19180;DHT22;9722;48.754;8.868;2022-10-16T22:49:48;13.70;99.90
19180;DHT22;9722;48.754;8.868;2022-10-16T22:53:08;13.70;99.90
19180;DHT22;9722;48.754;8.868;2022-10-16T22:56:29;13.80;99.90